sensor_id;sensor_type;location;lat;lon;timestamp;P1;durP1;ratioP1;P2;durP2;ratioP2
4508;SDS011;2267;48.816;9.230;2023-04-01T00:01:19;2.37;;;1.53;;
4508;SDS011;2267;48.816;9.230;2023-04-01T00:03:46;1.80;;;1.00;;
4508;SDS011;2267;48.816;9.230;2023-04-01T00:06:14;1.80;;;1.10;;
4508;SDS011;2267;48.816;9.230;2023-04-01T00:08:42;2.07;;;1.10;;
4508;SDS011;2267;48.816;9.230;2023-04-01T00:11:10;1.90;;;1.40;;
4508;SDS011;2267;48.816;9.230;2023-04-01T00:13:37;2.87;;;1.30;;
4508;SDS011;2267;48.816;9.230;2023-04-01T00:16:04;2.27;;;1.50;;
4508;SDS011;2267;48.816;9.230;2023-04-01T00:18:42;2.57;;;1.27;;
4508;SDS011;2267;48.816;9.230;2023-04-01T00:21:09;3.03;;;1.30;;
4508;SDS011;2267;48.816;9.230;2023-04-01T00:23:36;3.73;;;1.30;;
4508;SDS011;2267;48.816;9.230;2023-04-01T00:26:03;2.20;;;1.20;;
4508;SDS011;2267;48.816;9.230;2023-04-01T00:28:31;3.90;;;1.90;;
4508;SDS011;2267;48.816;9.230;2023-04-01T00:31:03;2.57;;;1.30;;
4508;SDS011;2267;48.816;9.230;2023-04-01T00:33:32;2.20;;;1.53;;
4508;SDS011;2267;48.816;9.230;2023-04-01T00:36:09;2.80;;;1.70;;
4508;SDS011;2267;48.816;9.230;2023-04-01T00:38:37;2.47;;;1.47;;
4508;SDS011;2267;48.816;9.230;2023-04-01T00:41:05;3.40;;;1.50;;
4508;SDS011;2267;48.816;9.230;2023-04-01T00:43:32;5.90;;;2.00;;
4508;SDS011;2267;48.816;9.230;2023-04-01T00:45:59;2.10;;;1.50;;
4508;SDS011;2267;48.816;9.230;2023-04-01T00:48:30;2.60;;;1.50;;
4508;SDS011;2267;48.816;9.230;2023-04-01T00:51:05;3.00;;;1.47;;
4508;SDS011;2267;48.816;9.230;2023-04-01T00:53:41;2.40;;;1.40;;
4508;SDS011;2267;48.816;9.230;2023-04-01T00:56:12;2.00;;;1.40;;
4508;SDS011;2267;48.816;9.230;2023-04-01T00:58:52;2.20;;;1.80;;
4508;SDS011;2267;48.816;9.230;2023-04-01T01:01:25;2.77;;;1.60;;
4508;SDS011;2267;48.816;9.230;2023-04-01T01:03:53;3.00;;;1.20;;
4508;SDS011;2267;48.816;9.230;2023-04-01T01:07:10;4.70;;;1.97;;
4508;SDS011;2267;48.816;9.230;2023-04-01T01:09:43;2.63;;;1.60;;
4508;SDS011;2267;48.816;9.230;2023-04-01T01:15:16;2.43;;;1.57;;
4508;SDS011;2267;48.816;9.230;2023-04-01T01:29:42;3.57;;;1.50;;
4508;SDS011;2267;48.816;9.230;2023-04-01T01:35:32;4.07;;;1.50;;
4508;SDS011;2267;48.816;9.230;2023-04-01T01:38:21;3.73;;;1.30;;
4508;SDS011;2267;48.816;9.230;2023-04-01T01:40:50;2.50;;;1.20;;
4508;SDS011;2267;48.816;9.230;2023-04-01T01:43:24;3.23;;;1.40;;
4508;SDS011;2267;48.816;9.230;2023-04-01T01:45:59;2.20;;;1.37;;
4508;SDS011;2267;48.816;9.230;2023-04-01T01:48:31;2.73;;;1.53;;
4508;SDS011;2267;48.816;9.230;2023-04-01T01:51:01;5.13;;;1.77;;
4508;SDS011;2267;48.816;9.230;2023-04-01T01:53:30;1.70;;;1.10;;
4508;SDS011;2267;48.816;9.230;2023-04-01T01:55:56;2.47;;;1.67;;
4508;SDS011;2267;48.816;9.230;2023-04-01T01:58:24;2.73;;;1.60;;
4508;SDS011;2267;48.816;9.230;2023-04-01T02:01:07;3.30;;;1.60;;
4508;SDS011;2267;48.816;9.230;2023-04-01T02:03:42;2.23;;;1.20;;
4508;SDS011;2267;48.816;9.230;2023-04-01T02:06:13;4.63;;;1.77;;
4508;SDS011;2267;48.816;9.230;2023-04-01T02:09:16;2.67;;;1.40;;
4508;SDS011;2267;48.816;9.230;2023-04-01T02:11:47;3.23;;;1.40;;
4508;SDS011;2267;48.816;9.230;2023-04-01T02:14:21;2.57;;;1.43;;
4508;SDS011;2267;48.816;9.230;2023-04-01T02:19:30;2.30;;;1.17;;
4508;SDS011;2267;48.816;9.230;2023-04-01T02:22:00;5.13;;;1.53;;
4508;SDS011;2267;48.816;9.230;2023-04-01T02:24:31;2.77;;;1.50;;
4508;SDS011;2267;48.816;9.230;2023-04-01T02:27:01;3.10;;;1.47;;
4508;SDS011;2267;48.816;9.230;2023-04-01T02:29:28;1.90;;;1.50;;
4508;SDS011;2267;48.816;9.230;2023-04-01T02:31:55;3.00;;;1.30;;
4508;SDS011;2267;48.816;9.230;2023-04-01T02:34:22;4.40;;;1.90;;
4508;SDS011;2267;48.816;9.230;2023-04-01T02:36:50;2.07;;;1.63;;
4508;SDS011;2267;48.816;9.230;2023-04-01T02:39:18;2.43;;;1.17;;
4508;SDS011;2267;48.816;9.230;2023-04-01T02:41:45;2.07;;;1.13;;
4508;SDS011;2267;48.816;9.230;2023-04-01T02:44:13;3.07;;;1.43;;
4508;SDS011;2267;48.816;9.230;2023-04-01T02:46:42;2.37;;;1.37;;
4508;SDS011;2267;48.816;9.230;2023-04-01T02:49:09;2.07;;;1.47;;
4508;SDS011;2267;48.816;9.230;2023-04-01T02:51:36;2.50;;;1.10;;
4508;SDS011;2267;48.816;9.230;2023-04-01T02:54:03;1.77;;;1.03;;
4508;SDS011;2267;48.816;9.230;2023-04-01T02:56:30;2.70;;;1.20;;
4508;SDS011;2267;48.816;9.230;2023-04-01T02:58:56;1.60;;;1.00;;
4508;SDS011;2267;48.816;9.230;2023-04-01T03:01:23;2.70;;;1.13;;
4508;SDS011;2267;48.816;9.230;2023-04-01T03:03:50;2.60;;;1.07;;
4508;SDS011;2267;48.816;9.230;2023-04-01T03:06:17;1.60;;;1.07;;
4508;SDS011;2267;48.816;9.230;2023-04-01T03:08:44;1.97;;;1.00;;
4508;SDS011;2267;48.816;9.230;2023-04-01T03:11:11;2.43;;;1.10;;
4508;SDS011;2267;48.816;9.230;2023-04-01T03:13:38;1.50;;;1.00;;
4508;SDS011;2267;48.816;9.230;2023-04-01T03:16:05;1.60;;;1.00;;
4508;SDS011;2267;48.816;9.230;2023-04-01T03:18:33;2.03;;;1.00;;
4508;SDS011;2267;48.816;9.230;2023-04-01T03:21:12;1.80;;;1.03;;
4508;SDS011;2267;48.816;9.230;2023-04-01T03:23:43;1.77;;;1.10;;
4508;SDS011;2267;48.816;9.230;2023-04-01T03:26:10;1.47;;;0.90;;
4508;SDS011;2267;48.816;9.230;2023-04-01T03:28:37;1.83;;;1.00;;
4508;SDS011;2267;48.816;9.230;2023-04-01T03:31:04;2.47;;;0.90;;
4508;SDS011;2267;48.816;9.230;2023-04-01T03:33:31;3.20;;;1.10;;
4508;SDS011;2267;48.816;9.230;2023-04-01T03:35:58;2.43;;;1.10;;
4508;SDS011;2267;48.816;9.230;2023-04-01T03:38:25;2.23;;;1.10;;
4508;SDS011;2267;48.816;9.230;2023-04-01T03:40:52;2.23;;;1.10;;
4508;SDS011;2267;48.816;9.230;2023-04-01T03:43:20;1.80;;;1.00;;
4508;SDS011;2267;48.816;9.230;2023-04-01T03:45:48;1.70;;;1.10;;
4508;SDS011;2267;48.816;9.230;2023-04-01T03:48:16;1.70;;;1.10;;
4508;SDS011;2267;48.816;9.230;2023-04-01T03:50:44;2.30;;;1.20;;
4508;SDS011;2267;48.816;9.230;2023-04-01T03:53:11;1.70;;;1.00;;
4508;SDS011;2267;48.816;9.230;2023-04-01T03:55:38;2.57;;;1.17;;
4508;SDS011;2267;48.816;9.230;2023-04-01T03:58:06;1.60;;;0.97;;
4508;SDS011;2267;48.816;9.230;2023-04-01T04:00:33;1.50;;;1.00;;
4508;SDS011;2267;48.816;9.230;2023-04-01T04:03:00;2.10;;;1.10;;
4508;SDS011;2267;48.816;9.230;2023-04-01T04:05:27;2.83;;;1.30;;
4508;SDS011;2267;48.816;9.230;2023-04-01T04:07:54;1.97;;;1.10;;
4508;SDS011;2267;48.816;9.230;2023-04-01T04:10:21;2.03;;;1.03;;
4508;SDS011;2267;48.816;9.230;2023-04-01T04:12:49;1.60;;;1.10;;
4508;SDS011;2267;48.816;9.230;2023-04-01T04:15:16;1.83;;;1.27;;
4508;SDS011;2267;48.816;9.230;2023-04-01T04:17:44;3.63;;;1.30;;
4508;SDS011;2267;48.816;9.230;2023-04-01T04:20:11;2.63;;;1.20;;
4508;SDS011;2267;48.816;9.230;2023-04-01T04:22:39;2.03;;;1.30;;
4508;SDS011;2267;48.816;9.230;2023-04-01T04:25:06;1.60;;;1.07;;
4508;SDS011;2267;48.816;9.230;2023-04-01T04:27:33;3.07;;;1.27;;
4508;SDS011;2267;48.816;9.230;2023-04-01T04:30:01;1.97;;;1.17;;
4508;SDS011;2267;48.816;9.230;2023-04-01T04:32:29;1.40;;;0.90;;
4508;SDS011;2267;48.816;9.230;2023-04-01T04:34:56;2.73;;;1.10;;
4508;SDS011;2267;48.816;9.230;2023-04-01T04:37:23;1.50;;;1.10;;
4508;SDS011;2267;48.816;9.230;2023-04-01T04:39:51;2.77;;;1.10;;
4508;SDS011;2267;48.816;9.230;2023-04-01T04:42:18;1.50;;;1.00;;
4508;SDS011;2267;48.816;9.230;2023-04-01T04:44:45;2.63;;;0.93;;
4508;SDS011;2267;48.816;9.230;2023-04-01T04:47:12;2.23;;;1.00;;
4508;SDS011;2267;48.816;9.230;2023-04-01T04:49:39;3.10;;;1.00;;
4508;SDS011;2267;48.816;9.230;2023-04-01T04:52:06;1.40;;;0.80;;
4508;SDS011;2267;48.816;9.230;2023-04-01T04:54:33;1.50;;;1.00;;
4508;SDS011;2267;48.816;9.230;2023-04-01T04:56:59;2.33;;;1.00;;
4508;SDS011;2267;48.816;9.230;2023-04-01T04:59:26;1.60;;;1.20;;
4508;SDS011;2267;48.816;9.230;2023-04-01T05:01:53;1.70;;;1.07;;
4508;SDS011;2267;48.816;9.230;2023-04-01T05:04:20;1.60;;;0.80;;
4508;SDS011;2267;48.816;9.230;2023-04-01T05:06:47;2.33;;;1.10;;
4508;SDS011;2267;48.816;9.230;2023-04-01T05:09:14;2.03;;;1.10;;
4508;SDS011;2267;48.816;9.230;2023-04-01T05:11:41;3.10;;;1.40;;
4508;SDS011;2267;48.816;9.230;2023-04-01T05:14:12;3.00;;;1.03;;
4508;SDS011;2267;48.816;9.230;2023-04-01T05:16:40;2.00;;;1.10;;
4508;SDS011;2267;48.816;9.230;2023-04-01T05:19:07;1.80;;;1.10;;
4508;SDS011;2267;48.816;9.230;2023-04-01T05:21:33;3.97;;;1.33;;
4508;SDS011;2267;48.816;9.230;2023-04-01T05:24:00;2.13;;;1.10;;
4508;SDS011;2267;48.816;9.230;2023-04-01T05:26:27;2.60;;;1.40;;
4508;SDS011;2267;48.816;9.230;2023-04-01T05:28:54;2.27;;;1.10;;
4508;SDS011;2267;48.816;9.230;2023-04-01T05:31:20;2.33;;;1.10;;
4508;SDS011;2267;48.816;9.230;2023-04-01T05:33:47;2.73;;;1.60;;
4508;SDS011;2267;48.816;9.230;2023-04-01T05:36:15;2.10;;;1.60;;
4508;SDS011;2267;48.816;9.230;2023-04-01T05:38:43;2.97;;;1.77;;
4508;SDS011;2267;48.816;9.230;2023-04-01T05:41:12;2.00;;;1.20;;
4508;SDS011;2267;48.816;9.230;2023-04-01T05:43:39;3.63;;;1.50;;
4508;SDS011;2267;48.816;9.230;2023-04-01T05:46:07;2.30;;;1.37;;
4508;SDS011;2267;48.816;9.230;2023-04-01T05:48:34;3.20;;;1.70;;
4508;SDS011;2267;48.816;9.230;2023-04-01T05:51:02;2.90;;;1.13;;
4508;SDS011;2267;48.816;9.230;2023-04-01T05:53:29;2.43;;;1.40;;
4508;SDS011;2267;48.816;9.230;2023-04-01T05:55:56;3.87;;;1.30;;
4508;SDS011;2267;48.816;9.230;2023-04-01T05:58:23;1.97;;;1.27;;
4508;SDS011;2267;48.816;9.230;2023-04-01T06:00:50;1.90;;;1.13;;
4508;SDS011;2267;48.816;9.230;2023-04-01T06:03:33;3.80;;;1.20;;
4508;SDS011;2267;48.816;9.230;2023-04-01T06:06:00;3.20;;;1.30;;
4508;SDS011;2267;48.816;9.230;2023-04-01T06:08:28;2.00;;;1.30;;
4508;SDS011;2267;48.816;9.230;2023-04-01T06:11:00;2.27;;;1.30;;
4508;SDS011;2267;48.816;9.230;2023-04-01T06:36:12;2.30;;;1.60;;
4508;SDS011;2267;48.816;9.230;2023-04-01T06:53:09;1.93;;;1.37;;
4508;SDS011;2267;48.816;9.230;2023-04-01T06:55:42;4.03;;;1.13;;
4508;SDS011;2267;48.816;9.230;2023-04-01T06:58:33;2.50;;;1.07;;
4508;SDS011;2267;48.816;9.230;2023-04-01T07:01:04;1.90;;;1.10;;
4508;SDS011;2267;48.816;9.230;2023-04-01T07:03:45;2.47;;;1.10;;
4508;SDS011;2267;48.816;9.230;2023-04-01T07:06:24;2.17;;;1.10;;
4508;SDS011;2267;48.816;9.230;2023-04-01T07:08:52;2.00;;;1.03;;
4508;SDS011;2267;48.816;9.230;2023-04-01T07:11:27;2.00;;;1.33;;
4508;SDS011;2267;48.816;9.230;2023-04-01T07:14:40;2.70;;;1.10;;
4508;SDS011;2267;48.816;9.230;2023-04-01T07:17:12;2.37;;;1.30;;
4508;SDS011;2267;48.816;9.230;2023-04-01T07:19:52;1.70;;;1.10;;
4508;SDS011;2267;48.816;9.230;2023-04-01T07:25:41;2.40;;;1.17;;
4508;SDS011;2267;48.816;9.230;2023-04-01T07:28:14;2.10;;;1.20;;
4508;SDS011;2267;48.816;9.230;2023-04-01T07:39:23;2.80;;;1.20;;
4508;SDS011;2267;48.816;9.230;2023-04-01T07:42:03;2.17;;;1.30;;
4508;SDS011;2267;48.816;9.230;2023-04-01T07:50:31;1.90;;;1.03;;
4508;SDS011;2267;48.816;9.230;2023-04-01T07:55:50;2.20;;;1.30;;
4508;SDS011;2267;48.816;9.230;2023-04-01T07:58:43;2.27;;;0.90;;
4508;SDS011;2267;48.816;9.230;2023-04-01T08:09:59;2.43;;;1.10;;
4508;SDS011;2267;48.816;9.230;2023-04-01T08:15:17;2.57;;;1.30;;
4508;SDS011;2267;48.816;9.230;2023-04-01T08:23:30;2.67;;;1.20;;
4508;SDS011;2267;48.816;9.230;2023-04-01T08:26:05;2.20;;;1.47;;
4508;SDS011;2267;48.816;9.230;2023-04-01T08:28:37;2.87;;;1.50;;
4508;SDS011;2267;48.816;9.230;2023-04-01T08:31:43;1.90;;;1.30;;
4508;SDS011;2267;48.816;9.230;2023-04-01T08:34:38;2.07;;;1.20;;
4508;SDS011;2267;48.816;9.230;2023-04-01T08:37:11;2.50;;;1.30;;
4508;SDS011;2267;48.816;9.230;2023-04-01T08:39:45;1.57;;;1.13;;
4508;SDS011;2267;48.816;9.230;2023-04-01T08:56:20;4.00;;;1.10;;
4508;SDS011;2267;48.816;9.230;2023-04-01T09:18:13;2.00;;;1.10;;
4508;SDS011;2267;48.816;9.230;2023-04-01T09:23:43;1.90;;;1.27;;
4508;SDS011;2267;48.816;9.230;2023-04-01T09:29:05;2.90;;;2.13;;
4508;SDS011;2267;48.816;9.230;2023-04-01T09:35:01;4.63;;;1.00;;
4508;SDS011;2267;48.816;9.230;2023-04-01T09:44:03;1.60;;;1.10;;
4508;SDS011;2267;48.816;9.230;2023-04-01T10:01:08;1.50;;;1.07;;
4508;SDS011;2267;48.816;9.230;2023-04-01T10:03:58;1.70;;;1.27;;
4508;SDS011;2267;48.816;9.230;2023-04-01T11:17:42;1.60;;;1.00;;
4508;SDS011;2267;48.816;9.230;2023-04-01T11:38:29;1.57;;;1.13;;
4508;SDS011;2267;48.816;9.230;2023-04-01T11:43:36;1.40;;;0.90;;
4508;SDS011;2267;48.816;9.230;2023-04-01T11:46:10;3.60;;;1.20;;
4508;SDS011;2267;48.816;9.230;2023-04-01T11:48:51;1.40;;;0.90;;
4508;SDS011;2267;48.816;9.230;2023-04-01T11:51:37;1.60;;;0.90;;
4508;SDS011;2267;48.816;9.230;2023-04-01T12:08:19;1.50;;;0.90;;
4508;SDS011;2267;48.816;9.230;2023-04-01T12:14:54;1.60;;;0.90;;
4508;SDS011;2267;48.816;9.230;2023-04-01T12:27:53;2.00;;;1.30;;
4508;SDS011;2267;48.816;9.230;2023-04-01T12:30:23;1.40;;;0.90;;
4508;SDS011;2267;48.816;9.230;2023-04-01T12:32:58;1.40;;;0.80;;
4508;SDS011;2267;48.816;9.230;2023-04-01T12:52:00;1.60;;;1.10;;
4508;SDS011;2267;48.816;9.230;2023-04-01T13:03:32;1.60;;;1.20;;
4508;SDS011;2267;48.816;9.230;2023-04-01T13:17:10;1.70;;;1.20;;
4508;SDS011;2267;48.816;9.230;2023-04-01T13:25:39;1.87;;;1.10;;
4508;SDS011;2267;48.816;9.230;2023-04-01T13:28:12;1.60;;;0.90;;
4508;SDS011;2267;48.816;9.230;2023-04-01T13:33:39;1.40;;;0.90;;
4508;SDS011;2267;48.816;9.230;2023-04-01T13:38:56;1.50;;;1.00;;
4508;SDS011;2267;48.816;9.230;2023-04-01T13:44:45;1.60;;;0.90;;
4508;SDS011;2267;48.816;9.230;2023-04-01T13:55:37;2.37;;;1.00;;
4508;SDS011;2267;48.816;9.230;2023-04-01T14:06:45;1.50;;;0.90;;
4508;SDS011;2267;48.816;9.230;2023-04-01T14:12:36;1.40;;;0.90;;
4508;SDS011;2267;48.816;9.230;2023-04-01T14:21:21;1.50;;;1.00;;
4508;SDS011;2267;48.816;9.230;2023-04-01T14:26:45;1.60;;;1.00;;
4508;SDS011;2267;48.816;9.230;2023-04-01T14:49:36;1.63;;;0.90;;
4508;SDS011;2267;48.816;9.230;2023-04-01T14:52:27;1.40;;;0.90;;
4508;SDS011;2267;48.816;9.230;2023-04-01T14:54:58;1.40;;;0.90;;
4508;SDS011;2267;48.816;9.230;2023-04-01T14:57:30;1.50;;;0.90;;
4508;SDS011;2267;48.816;9.230;2023-04-01T15:00:14;1.50;;;0.90;;
4508;SDS011;2267;48.816;9.230;2023-04-01T15:05:13;1.40;;;0.87;;
4508;SDS011;2267;48.816;9.230;2023-04-01T15:08:19;1.40;;;0.80;;
4508;SDS011;2267;48.816;9.230;2023-04-01T15:13:25;1.60;;;1.20;;
4508;SDS011;2267;48.816;9.230;2023-04-01T15:16:05;1.53;;;1.10;;
4508;SDS011;2267;48.816;9.230;2023-04-01T15:23:55;1.60;;;1.00;;
4508;SDS011;2267;48.816;9.230;2023-04-01T15:59:51;1.50;;;0.80;;
4508;SDS011;2267;48.816;9.230;2023-04-01T16:05:24;1.50;;;0.80;;
4508;SDS011;2267;48.816;9.230;2023-04-01T16:07:59;1.50;;;0.90;;
4508;SDS011;2267;48.816;9.230;2023-04-01T16:23:36;3.40;;;2.20;;
4508;SDS011;2267;48.816;9.230;2023-04-01T16:26:08;1.60;;;0.90;;
4508;SDS011;2267;48.816;9.230;2023-04-01T16:28:42;1.80;;;0.90;;
4508;SDS011;2267;48.816;9.230;2023-04-01T16:34:02;1.60;;;1.10;;
4508;SDS011;2267;48.816;9.230;2023-04-01T16:36:55;1.50;;;1.00;;
4508;SDS011;2267;48.816;9.230;2023-04-01T16:51:46;1.60;;;1.10;;
4508;SDS011;2267;48.816;9.230;2023-04-01T16:56:49;1.73;;;1.10;;
4508;SDS011;2267;48.816;9.230;2023-04-01T17:04:45;2.07;;;1.50;;
4508;SDS011;2267;48.816;9.230;2023-04-01T17:16:14;1.80;;;1.20;;
4508;SDS011;2267;48.816;9.230;2023-04-01T17:27:43;2.10;;;1.30;;
4508;SDS011;2267;48.816;9.230;2023-04-01T17:36:03;1.60;;;1.00;;
4508;SDS011;2267;48.816;9.230;2023-04-01T17:58:17;3.17;;;1.53;;
4508;SDS011;2267;48.816;9.230;2023-04-01T18:03:48;1.80;;;1.40;;
4508;SDS011;2267;48.816;9.230;2023-04-01T18:06:36;1.73;;;1.10;;
4508;SDS011;2267;48.816;9.230;2023-04-01T18:12:31;2.07;;;1.37;;
4508;SDS011;2267;48.816;9.230;2023-04-01T18:21:47;2.70;;;1.50;;
4508;SDS011;2267;48.816;9.230;2023-04-01T18:27:15;2.33;;;1.47;;
4508;SDS011;2267;48.816;9.230;2023-04-01T18:32:24;2.10;;;1.70;;
4508;SDS011;2267;48.816;9.230;2023-04-01T18:34:54;4.10;;;1.47;;
4508;SDS011;2267;48.816;9.230;2023-04-01T18:37:47;2.60;;;1.80;;
4508;SDS011;2267;48.816;9.230;2023-04-01T18:40:28;2.30;;;1.90;;
4508;SDS011;2267;48.816;9.230;2023-04-01T18:49:05;4.20;;;2.20;;
4508;SDS011;2267;48.816;9.230;2023-04-01T18:57:41;1.90;;;1.70;;
4508;SDS011;2267;48.816;9.230;2023-04-01T19:00:20;2.93;;;1.93;;
4508;SDS011;2267;48.816;9.230;2023-04-01T19:05:37;2.53;;;1.57;;
4508;SDS011;2267;48.816;9.230;2023-04-01T19:14:00;3.10;;;1.30;;
4508;SDS011;2267;48.816;9.230;2023-04-01T19:16:33;1.70;;;1.37;;
4508;SDS011;2267;48.816;9.230;2023-04-01T19:21:58;1.80;;;1.40;;
4508;SDS011;2267;48.816;9.230;2023-04-01T19:27:42;3.70;;;1.90;;
4508;SDS011;2267;48.816;9.230;2023-04-01T19:30:19;2.40;;;1.60;;
4508;SDS011;2267;48.816;9.230;2023-04-01T19:32:52;2.33;;;1.73;;
4508;SDS011;2267;48.816;9.230;2023-04-01T19:35:47;2.73;;;1.20;;
4508;SDS011;2267;48.816;9.230;2023-04-01T19:38:37;2.20;;;1.20;;
4508;SDS011;2267;48.816;9.230;2023-04-01T19:41:39;1.90;;;1.53;;
4508;SDS011;2267;48.816;9.230;2023-04-01T19:47:39;2.37;;;2.00;;
4508;SDS011;2267;48.816;9.230;2023-04-01T19:52:54;2.67;;;1.80;;
4508;SDS011;2267;48.816;9.230;2023-04-01T19:58:26;2.90;;;2.00;;
4508;SDS011;2267;48.816;9.230;2023-04-01T20:00:59;3.60;;;2.27;;
4508;SDS011;2267;48.816;9.230;2023-04-01T20:03:44;2.10;;;1.50;;
4508;SDS011;2267;48.816;9.230;2023-04-01T20:14:36;2.00;;;1.70;;
4508;SDS011;2267;48.816;9.230;2023-04-01T20:17:21;2.50;;;1.73;;
4508;SDS011;2267;48.816;9.230;2023-04-01T20:27:45;4.63;;;3.30;;
4508;SDS011;2267;48.816;9.230;2023-04-01T20:33:10;4.17;;;3.43;;
4508;SDS011;2267;48.816;9.230;2023-04-01T20:35:42;3.33;;;2.80;;
4508;SDS011;2267;48.816;9.230;2023-04-01T20:38:35;3.33;;;2.23;;
4508;SDS011;2267;48.816;9.230;2023-04-01T20:41:13;2.53;;;2.13;;
4508;SDS011;2267;48.816;9.230;2023-04-01T20:46:35;3.03;;;2.10;;
4508;SDS011;2267;48.816;9.230;2023-04-01T20:49:29;3.10;;;1.80;;
4508;SDS011;2267;48.816;9.230;2023-04-01T20:54:43;2.20;;;1.90;;
4508;SDS011;2267;48.816;9.230;2023-04-01T21:16:48;1.73;;;1.50;;
4508;SDS011;2267;48.816;9.230;2023-04-01T21:19:28;2.53;;;1.80;;
4508;SDS011;2267;48.816;9.230;2023-04-01T21:22:06;2.40;;;1.30;;
4508;SDS011;2267;48.816;9.230;2023-04-01T21:31:13;2.10;;;1.70;;
4508;SDS011;2267;48.816;9.230;2023-04-01T21:42:28;2.47;;;1.30;;
4508;SDS011;2267;48.816;9.230;2023-04-01T21:45:23;2.23;;;1.50;;
4508;SDS011;2267;48.816;9.230;2023-04-01T21:53:49;2.10;;;1.77;;
4508;SDS011;2267;48.816;9.230;2023-04-01T22:08:20;2.60;;;1.33;;
4508;SDS011;2267;48.816;9.230;2023-04-01T22:10:51;2.33;;;1.30;;
4508;SDS011;2267;48.816;9.230;2023-04-01T22:13:28;4.03;;;2.13;;
4508;SDS011;2267;48.816;9.230;2023-04-01T22:27:16;1.80;;;1.13;;
4508;SDS011;2267;48.816;9.230;2023-04-01T22:30:04;2.47;;;1.20;;
4508;SDS011;2267;48.816;9.230;2023-04-01T22:35:40;1.60;;;1.23;;
4508;SDS011;2267;48.816;9.230;2023-04-01T22:44:45;1.70;;;1.37;;
4508;SDS011;2267;48.816;9.230;2023-04-01T22:47:20;1.70;;;1.30;;
4508;SDS011;2267;48.816;9.230;2023-04-01T22:50:39;1.67;;;1.27;;
4508;SDS011;2267;48.816;9.230;2023-04-01T22:53:16;1.73;;;1.23;;
4508;SDS011;2267;48.816;9.230;2023-04-01T22:55:51;1.90;;;1.03;;
4508;SDS011;2267;48.816;9.230;2023-04-01T22:58:30;1.60;;;1.17;;
4508;SDS011;2267;48.816;9.230;2023-04-01T23:01:08;2.03;;;1.40;;
4508;SDS011;2267;48.816;9.230;2023-04-01T23:03:41;2.10;;;1.30;;
4508;SDS011;2267;48.816;9.230;2023-04-01T23:06:15;1.77;;;1.10;;
4508;SDS011;2267;48.816;9.230;2023-04-01T23:08:59;2.67;;;1.23;;
4508;SDS011;2267;48.816;9.230;2023-04-01T23:11:39;1.57;;;1.30;;
4508;SDS011;2267;48.816;9.230;2023-04-01T23:22:57;1.70;;;1.20;;
4508;SDS011;2267;48.816;9.230;2023-04-01T23:25:32;1.80;;;1.30;;
4508;SDS011;2267;48.816;9.230;2023-04-01T23:36:02;3.17;;;1.60;;
4508;SDS011;2267;48.816;9.230;2023-04-01T23:38:39;1.80;;;1.50;;
4508;SDS011;2267;48.816;9.230;2023-04-01T23:41:09;1.80;;;1.50;;
4508;SDS011;2267;48.816;9.230;2023-04-01T23:44:21;2.00;;;1.30;;
4508;SDS011;2267;48.816;9.230;2023-04-01T23:46:42;1.60;;;1.10;;
4508;SDS011;2267;48.816;9.230;2023-04-01T23:49:13;2.07;;;1.40;;
4508;SDS011;2267;48.816;9.230;2023-04-01T23:52:19;1.63;;;1.20;;
4508;SDS011;2267;48.816;9.230;2023-04-01T23:55:12;1.90;;;1.30;;
4508;SDS011;2267;48.816;9.230;2023-04-01T23:57:40;1.70;;;1.23;;
